Arcata, CA

4:26 AM PST on November 28, 2014 (GMT -0800)
Walker Point | Change Station
CLOSE
Current Station
Personal Weather Station
Location: Bayside, CA
Elevation: 72 ft
Nearby Weather Stations

Elev 72 ft 40.81 °N, 124.09 °W | Updated 1 minute ago

Mostly Cloudy
Mostly Cloudy
59.9 °F
Feels Like 59.9 °F
N
2.2
Wind Variable Wind from SE
Gusts 5.4 mph

Today
High -- | Low -- °F
--% Chance of Precip.
Yesterday
High -- | Low -- °F
Precip. -- in
7:18 AM 4:50 PM
Waxing Crescent, 40% visible
Pressure 29.90 in
Visibility 10.0 miles
Clouds Clear
Dew Point 37 °F
Humidity 43%
Rainfall 0.00 in
Snow Depth Not available.
UV 0 out of 12
Pollen .50 out of 12
Air Quality Not available.
Flu Activity Not available.
METAR KACV 281153Z AUTO 15013G18KT 10SM CLR 14/07 A2989 RMK AO2 SLP124 T01390072 10139 20094 58016

More Conditions Fewer Conditions

Pressure 29.90 in
Visibility 10.0 miles
Clouds Clear
Dew Point 37 °F
Humidity 43%
Rainfall 0.00 in
Snow Depth Not available.
UV 0 out of 12
Pollen .50 out of 12
Air Quality Not available.
Flu Activity Not available.
METAR KACV 281153Z AUTO 15013G18KT 10SM CLR 14/07 A2989 RMK AO2 SLP124 T01390072 10139 20094 58016

More Conditions Fewer Conditions

10-Day Weather Forecast

Almanac

Astronomy

Nov. 28, 2014 Rise Set
Actual Time
Civil Twilight
Nautical Twilight
Astronomical Twilight
Moon
Length of Visible Light
Length of Day
Tomorrow will be .
, % of the Moon is Illuminated

Today's Extremes

State Highs State Lows

Community

WunderPhotos

Upload Photos

1,774,199 photos uploaded!

WunderBlogs® & News

Nearby

Air Quality

  Air Quality AQ Index Pollutant
Not available.

Snow Depth

Station Depth Elevation

Earthquake Activity

City Distance Mag. Time & Date
Minimum magnitude displayed is 2.5.

Coastal Water Temperatures

Place Temperature

Nearby Weather Stations